createdAt,value
2022-08-12T00:02:03.096Z,14.31
2022-08-12T00:05:06.319Z,14.26
2022-08-12T00:07:52.527Z,14.22
2022-08-12T00:10:38.500Z,14.28
2022-08-12T00:13:24.561Z,14.25
2022-08-12T00:16:09.989Z,14.20
2022-08-12T00:18:55.747Z,14.24
2022-08-12T00:21:41.873Z,14.18
2022-08-12T00:24:31.232Z,14.09
2022-08-12T00:27:16.929Z,14.02
2022-08-12T00:30:02.325Z,14.03
2022-08-12T00:32:54.877Z,14.00
2022-08-12T00:35:42.030Z,13.96
2022-08-12T00:38:26.948Z,13.91
2022-08-12T00:41:13.110Z,13.88
2022-08-12T00:43:43.059Z,13.89
2022-08-12T00:46:28.107Z,13.83
2022-08-12T00:48:55.251Z,13.83
2022-08-12T00:51:22.389Z,13.82
2022-08-12T00:53:48.912Z,13.76
2022-08-12T00:56:15.633Z,13.80
2022-08-12T00:58:47.914Z,13.79
2022-08-12T01:01:15.498Z,13.74
2022-08-12T01:04:05.712Z,13.68
2022-08-12T01:06:53.934Z,13.65
2022-08-12T01:09:40.747Z,13.64
2022-08-12T01:12:10.815Z,13.61
2022-08-12T01:14:37.747Z,13.51
2022-08-12T01:17:05.173Z,13.52
2022-08-12T01:19:32.447Z,13.45
2022-08-12T01:22:31.494Z,13.45
2022-08-12T01:25:06.799Z,13.46
2022-08-12T01:27:38.134Z,13.46
2022-08-12T01:30:08.722Z,13.51
2022-08-12T01:32:38.526Z,13.46
2022-08-12T01:35:11.852Z,13.40
2022-08-12T01:38:04.298Z,13.24
2022-08-12T01:40:38.160Z,13.21
2022-08-12T01:43:09.022Z,13.14
2022-08-12T01:45:44.385Z,13.24
2022-08-12T01:48:34.916Z,13.15
2022-08-12T01:52:04.514Z,13.16
2022-08-12T01:54:06.332Z,13.13
2022-08-12T01:56:43.688Z,13.13
2022-08-12T01:59:34.003Z,13.11
2022-08-12T02:02:04.962Z,13.09
2022-08-12T02:04:57.652Z,13.09
2022-08-12T02:07:49.239Z,13.04
2022-08-12T02:10:53.163Z,13.01
2022-08-12T02:13:49.525Z,12.95
2022-08-12T02:16:35.028Z,12.90
2022-08-12T02:19:22.096Z,12.80
2022-08-12T02:21:58.309Z,12.73
2022-08-12T02:24:31.271Z,12.74
2022-08-12T02:26:59.505Z,12.72
2022-08-12T02:29:26.738Z,12.75
2022-08-12T02:31:54.079Z,12.73
2022-08-12T02:34:22.995Z,12.68
2022-08-12T02:36:55.945Z,12.67
2022-08-12T02:39:26.639Z,12.69
2022-08-12T02:41:55.740Z,12.61
2022-08-12T02:44:24.118Z,12.54
2022-08-12T02:46:53.663Z,12.60
2022-08-12T02:49:31.418Z,12.53
2022-08-12T02:52:00.176Z,12.56
2022-08-12T02:54:27.201Z,12.55
2022-08-12T02:56:55.424Z,12.53
2022-08-12T02:59:24.286Z,12.48
2022-08-12T03:01:54.430Z,12.48
2022-08-12T03:04:27.067Z,12.51
2022-08-12T03:07:32.666Z,12.42
2022-08-12T03:10:17.805Z,12.30
2022-08-12T03:13:03.988Z,12.32
2022-08-12T03:15:31.287Z,12.47
2022-08-12T03:18:26.905Z,12.47
2022-08-12T03:20:54.847Z,12.43
2022-08-12T03:23:29.548Z,12.33
2022-08-12T03:25:58.881Z,12.34
2022-08-12T03:28:44.100Z,12.34
2022-08-12T03:31:11.255Z,12.36
2022-08-12T03:33:40.272Z,12.38
2022-08-12T03:36:08.776Z,12.31
2022-08-12T03:38:40.323Z,12.32
2022-08-12T03:41:33.092Z,12.22
2022-08-12T03:44:30.042Z,12.25
2022-08-12T03:47:23.727Z,12.20
2022-08-12T03:50:10.177Z,12.23
2022-08-12T03:52:55.422Z,12.24
2022-08-12T03:55:40.501Z,12.24
2022-08-12T03:58:25.922Z,12.19
2022-08-12T04:00:52.757Z,12.26
2022-08-12T04:03:39.460Z,12.23
2022-08-12T04:06:08.767Z,12.11
2022-08-12T04:08:35.957Z,12.07
2022-08-12T04:11:22.092Z,12.17
2022-08-12T04:13:48.777Z,12.13
2022-08-12T04:16:17.041Z,12.18
2022-08-12T04:18:44.357Z,12.35
2022-08-12T04:21:10.924Z,12.33
2022-08-12T04:23:40.946Z,12.32
2022-08-12T04:26:09.085Z,12.32
2022-08-12T04:28:36.214Z,12.34
2022-08-12T04:31:02.719Z,12.34
2022-08-12T04:33:29.185Z,12.41
2022-08-12T04:35:56.216Z,12.42
2022-08-12T04:38:23.947Z,12.48
2022-08-12T04:40:51.759Z,12.55
2022-08-12T04:44:01.114Z,12.68
2022-08-12T04:46:04.821Z,12.84
2022-08-12T04:48:31.287Z,12.92
2022-08-12T04:50:58.357Z,12.98
2022-08-12T04:53:25.014Z,12.93
2022-08-12T04:55:52.220Z,13.00
2022-08-12T04:58:29.578Z,13.03
2022-08-12T05:00:57.301Z,13.07
2022-08-12T05:03:26.482Z,13.08
2022-08-12T05:05:56.562Z,13.19
2022-08-12T05:08:24.402Z,13.48
2022-08-12T05:10:51.228Z,13.79
2022-08-12T05:13:21.386Z,14.24
2022-08-12T05:16:05.178Z,14.59
2022-08-12T05:18:39.129Z,14.85
2022-08-12T05:21:08.064Z,15.15
2022-08-12T05:23:37.888Z,15.43
2022-08-12T05:26:06.074Z,15.62
2022-08-12T05:28:32.941Z,15.71
2022-08-12T05:31:02.040Z,15.93
2022-08-12T05:33:38.310Z,15.96
2022-08-12T05:36:10.040Z,16.14
2022-08-12T05:38:55.040Z,16.23
2022-08-12T05:41:22.786Z,16.42
2022-08-12T05:43:54.460Z,16.57
2022-08-12T05:46:22.430Z,16.79
2022-08-12T05:48:51.166Z,16.99
2022-08-12T05:51:18.835Z,17.25
2022-08-12T05:53:45.537Z,17.35
2022-08-12T05:56:26.367Z,17.44
2022-08-12T05:58:54.540Z,17.51
2022-08-12T06:02:09.597Z,17.56
2022-08-12T06:04:09.474Z,17.75
2022-08-12T06:06:41.658Z,17.71
2022-08-12T06:09:13.210Z,17.75
2022-08-12T06:11:53.598Z,18.08
2022-08-12T06:14:28.151Z,18.25
2022-08-12T06:16:55.159Z,18.22
2022-08-12T06:19:21.911Z,18.43
2022-08-12T06:21:49.049Z,18.51
2022-08-12T06:24:18.507Z,18.45
2022-08-12T06:26:44.999Z,18.57
2022-08-12T06:30:06.615Z,18.71
2022-08-12T06:32:06.951Z,19.09
2022-08-12T06:35:25.991Z,19.20
2022-08-12T06:37:20.947Z,19.21
2022-08-12T06:39:51.937Z,19.19
2022-08-12T06:42:37.082Z,19.25
2022-08-12T06:45:05.526Z,19.22
2022-08-12T06:47:36.742Z,19.57
2022-08-12T06:50:03.485Z,19.79
2022-08-12T06:52:31.272Z,19.68
2022-08-12T06:54:59.845Z,20.17
2022-08-12T06:58:05.185Z,20.08
2022-08-12T07:00:22.502Z,20.15
2022-08-12T07:02:57.905Z,20.15
2022-08-12T07:05:25.113Z,20.31
2022-08-12T07:08:01.477Z,20.64
2022-08-12T07:10:41.009Z,20.87
2022-08-12T07:13:09.456Z,20.70
2022-08-12T07:15:36.242Z,21.01
2022-08-12T07:18:11.839Z,20.98
2022-08-12T07:20:52.302Z,21.00
2022-08-12T07:23:20.061Z,21.15
2022-08-12T07:25:46.677Z,21.15
2022-08-12T07:28:17.376Z,21.15
2022-08-12T07:30:45.728Z,21.13
2022-08-12T07:33:12.969Z,21.29
2022-08-12T07:35:47.954Z,21.24
2022-08-12T07:38:43.801Z,21.31
2022-08-12T07:41:15.898Z,21.26
2022-08-12T07:43:48.525Z,21.59
2022-08-12T07:46:20.455Z,22.03
2022-08-12T07:48:48.937Z,22.14
2022-08-12T07:51:25.469Z,21.79
2022-08-12T07:54:01.108Z,21.59
2022-08-12T07:56:31.155Z,21.94
2022-08-12T07:58:58.988Z,22.18
2022-08-12T08:01:25.541Z,22.40
2022-08-12T08:04:16.492Z,22.20
2022-08-12T08:06:45.633Z,22.38
2022-08-12T08:09:14.368Z,22.54
2022-08-12T08:11:59.924Z,22.36
2022-08-12T08:14:29.265Z,22.51
2022-08-12T08:16:57.922Z,22.84
2022-08-12T08:19:25.414Z,22.83
2022-08-12T08:21:54.160Z,23.06
2022-08-12T08:24:24.503Z,23.18
2022-08-12T08:26:54.251Z,22.99
2022-08-12T08:29:21.980Z,23.38
2022-08-12T08:31:58.621Z,23.36
2022-08-12T08:34:40.265Z,23.30
2022-08-12T08:37:17.241Z,23.53
2022-08-12T08:39:44.029Z,23.71
2022-08-12T08:42:29.188Z,24.01
2022-08-12T08:44:58.015Z,24.19
2022-08-12T08:47:24.761Z,24.15
2022-08-12T08:49:51.262Z,24.30
2022-08-12T08:52:45.493Z,24.29
2022-08-12T08:55:14.133Z,24.27
2022-08-12T08:57:44.745Z,24.07
2022-08-12T09:00:15.256Z,24.36
2022-08-12T09:02:49.128Z,24.34
2022-08-12T09:05:25.736Z,24.47
2022-08-12T09:08:08.959Z,24.73
2022-08-12T09:10:39.106Z,24.70
2022-08-12T09:14:10.603Z,24.83
2022-08-12T09:16:21.328Z,24.79
2022-08-12T09:18:52.249Z,24.90
2022-08-12T09:21:19.937Z,24.74
2022-08-12T09:24:00.665Z,25.06
2022-08-12T09:30:09.705Z,24.83
2022-08-12T09:32:11.543Z,25.24
2022-08-12T09:34:56.789Z,25.58
2022-08-12T09:37:28.233Z,25.46
2022-08-12T09:41:01.652Z,25.19
2022-08-12T09:43:29.198Z,25.57
2022-08-12T09:46:11.248Z,25.80
2022-08-12T09:48:56.193Z,25.70
2022-08-12T09:51:23.735Z,26.01
2022-08-12T09:54:08.688Z,26.14
2022-08-12T09:57:00.178Z,26.28
2022-08-12T10:00:15.704Z,26.01
2022-08-12T10:02:42.315Z,25.68
2022-08-12T10:05:01.665Z,26.06
2022-08-12T10:07:40.685Z,25.30
2022-08-12T10:10:24.801Z,25.43
2022-08-12T10:13:14.694Z,25.59
2022-08-12T10:16:00.962Z,25.91
2022-08-12T10:18:32.718Z,25.72
2022-08-12T10:21:09.393Z,25.83
2022-08-12T10:23:46.071Z,25.49
2022-08-12T10:26:39.089Z,25.43
2022-08-12T10:30:37.150Z,25.48
2022-08-12T10:32:43.766Z,25.92
2022-08-12T10:35:08.478Z,26.45
2022-08-12T10:38:37.964Z,26.57
2022-08-12T10:40:28.728Z,26.29
2022-08-12T10:43:16.693Z,26.08
2022-08-12T10:45:46.210Z,26.13
2022-08-12T10:48:21.469Z,26.61
2022-08-12T10:51:02.327Z,27.12
2022-08-12T10:53:45.927Z,27.97
2022-08-12T10:56:15.332Z,28.87
2022-08-12T10:58:44.899Z,30.43
2022-08-12T11:01:50.466Z,30.38
2022-08-12T11:04:20.101Z,31.01
2022-08-12T11:07:10.318Z,31.26
2022-08-12T11:10:00.034Z,31.09
2022-08-12T11:12:56.077Z,31.32
2022-08-12T11:15:24.356Z,31.57
2022-08-12T11:18:03.073Z,31.19
2022-08-12T11:20:31.476Z,30.81
2022-08-12T11:23:04.229Z,31.25
2022-08-12T11:25:57.700Z,32.04
2022-08-12T11:28:33.747Z,33.65
2022-08-12T11:31:03.437Z,34.35
2022-08-12T11:34:06.236Z,33.28
2022-08-12T11:36:17.794Z,32.67
2022-08-12T11:38:50.438Z,32.37
2022-08-12T11:41:31.163Z,33.54
2022-08-12T11:43:59.372Z,33.89
2022-08-12T11:46:25.802Z,34.00
2022-08-12T11:48:52.869Z,34.10
2022-08-12T11:51:20.973Z,32.24
2022-08-12T11:53:57.413Z,33.89
2022-08-12T11:56:38.085Z,34.89
2022-08-12T12:02:01.965Z,36.05
2022-08-12T12:04:31.419Z,36.01
2022-08-12T12:07:07.647Z,35.97
2022-08-12T12:09:51.870Z,38.63
2022-08-12T12:12:18.598Z,36.27
2022-08-12T12:14:54.845Z,34.78
2022-08-12T12:17:23.893Z,36.38
2022-08-12T12:19:50.951Z,36.62
2022-08-12T12:22:23.065Z,36.54
2022-08-12T12:24:51.248Z,35.70
2022-08-12T12:27:20.327Z,36.34
2022-08-12T12:30:19.273Z,37.97
2022-08-12T12:32:53.750Z,39.64
2022-08-12T12:36:19.712Z,39.21
2022-08-12T12:38:12.746Z,38.10
2022-08-12T12:40:43.752Z,38.45
2022-08-12T12:43:12.029Z,38.22
2022-08-12T12:45:44.506Z,37.84
2022-08-12T12:48:21.127Z,37.88
2022-08-12T12:51:13.133Z,39.53
2022-08-12T12:54:06.187Z,39.44
2022-08-12T12:56:34.111Z,40.11
2022-08-12T12:59:00.950Z,38.54
2022-08-12T13:01:31.117Z,39.16
2022-08-12T13:04:02.723Z,39.70
2022-08-12T13:06:30.442Z,40.01
2022-08-12T13:09:02.470Z,39.47
2022-08-12T13:11:41.250Z,38.73
2022-08-12T13:14:28.141Z,40.34
2022-08-12T13:16:55.237Z,40.42
2022-08-12T13:19:25.075Z,39.56
2022-08-12T13:22:23.452Z,40.03
2022-08-12T13:24:55.692Z,39.69
2022-08-12T13:27:41.379Z,39.66
2022-08-12T13:30:20.292Z,40.92
2022-08-12T13:32:58.737Z,40.18
2022-08-12T13:35:33.456Z,41.54
2022-08-12T13:38:02.445Z,41.66
2022-08-12T13:40:32.204Z,41.05
2022-08-12T13:43:02.000Z,40.52
2022-08-12T13:45:30.820Z,38.72
2022-08-12T13:48:00.278Z,40.72
2022-08-12T13:50:43.429Z,40.29
2022-08-12T13:53:24.438Z,40.34
2022-08-12T13:56:01.539Z,39.95
2022-08-12T13:58:30.029Z,40.13
2022-08-12T14:00:58.082Z,41.19
2022-08-12T14:03:28.507Z,41.53
2022-08-12T14:06:15.499Z,40.82
2022-08-12T14:08:43.045Z,41.23
2022-08-12T14:11:09.855Z,41.96
2022-08-12T14:14:05.797Z,41.23
2022-08-12T14:16:37.969Z,42.51
2022-08-12T14:19:20.159Z,42.78
2022-08-12T14:22:00.828Z,43.72
2022-08-12T14:24:35.061Z,43.42
2022-08-12T14:27:02.937Z,44.15
2022-08-12T14:29:55.758Z,43.01
2022-08-12T14:32:18.081Z,41.74
2022-08-12T14:34:46.468Z,40.23
2022-08-12T14:37:55.246Z,40.44
2022-08-12T14:40:01.171Z,40.47
2022-08-12T14:42:28.223Z,42.47
2022-08-12T14:45:01.156Z,41.98
2022-08-12T14:47:29.394Z,42.49
2022-08-12T14:50:37.370Z,43.36
2022-08-12T14:56:59.850Z,41.29
2022-08-12T14:58:31.853Z,41.75
2022-08-12T15:01:21.445Z,42.25
2022-08-12T15:03:53.930Z,43.52
2022-08-12T15:06:44.390Z,42.36
2022-08-12T15:09:13.997Z,41.99
2022-08-12T15:11:55.106Z,42.47
2022-08-12T15:14:30.313Z,43.66
2022-08-12T15:17:00.791Z,43.64
2022-08-12T15:20:11.476Z,42.53
2022-08-12T15:22:36.884Z,43.78
2022-08-12T15:25:05.471Z,42.68
2022-08-12T15:28:03.852Z,42.63
2022-08-12T15:30:22.612Z,42.52
2022-08-12T15:32:50.649Z,42.40
2022-08-12T15:35:17.252Z,42.46
2022-08-12T15:38:08.068Z,42.99
2022-08-12T15:40:33.131Z,43.07
2022-08-12T15:43:04.265Z,42.90
2022-08-12T15:45:37.394Z,42.41
2022-08-12T15:48:16.669Z,41.28
2022-08-12T15:50:46.778Z,39.15
2022-08-12T15:53:37.973Z,40.04
2022-08-12T15:56:07.813Z,42.05
2022-08-12T15:58:43.805Z,43.40
2022-08-12T16:01:15.326Z,43.21
2022-08-12T16:04:00.043Z,42.82
2022-08-12T16:06:52.157Z,42.95
2022-08-12T16:09:21.497Z,42.86
2022-08-12T16:11:48.768Z,42.14
2022-08-12T16:14:17.544Z,41.37
2022-08-12T16:16:48.725Z,42.10
2022-08-12T16:20:02.998Z,41.43
2022-08-12T16:22:07.092Z,41.96
2022-08-12T16:24:42.391Z,41.40
2022-08-12T16:27:09.795Z,41.63
2022-08-12T16:29:52.981Z,41.59
2022-08-12T16:32:24.037Z,42.52
2022-08-12T16:34:55.019Z,41.98
2022-08-12T16:38:24.229Z,41.96
2022-08-12T16:40:11.317Z,42.10
2022-08-12T16:42:42.255Z,41.77
2022-08-12T16:45:32.383Z,41.51
2022-08-12T16:48:33.734Z,39.90
2022-08-12T16:51:09.588Z,40.57
2022-08-12T16:53:43.946Z,40.99
2022-08-12T16:56:15.160Z,41.02
2022-08-12T16:58:43.420Z,40.90
2022-08-12T17:01:14.541Z,41.25
2022-08-12T17:03:47.172Z,41.05
2022-08-12T17:06:27.415Z,41.52
2022-08-12T17:09:02.461Z,40.27
2022-08-12T17:11:32.746Z,40.19
2022-08-12T17:13:59.520Z,40.48
2022-08-12T17:16:29.826Z,40.63
2022-08-12T17:18:59.623Z,39.53
2022-08-12T17:21:41.535Z,39.02
2022-08-12T17:24:21.379Z,39.23
2022-08-12T17:26:50.458Z,39.53
2022-08-12T17:29:24.163Z,38.44
2022-08-12T17:32:10.136Z,38.15
2022-08-12T17:34:56.294Z,37.21
2022-08-12T17:37:22.844Z,37.62
2022-08-12T17:40:15.105Z,36.79
2022-08-12T17:42:40.575Z,35.99
2022-08-12T17:45:17.037Z,34.43
2022-08-12T17:48:01.574Z,32.01
2022-08-12T17:50:36.803Z,30.41
2022-08-12T17:53:04.620Z,30.07
2022-08-12T17:55:43.691Z,29.76
2022-08-12T17:58:36.874Z,29.11
2022-08-12T18:01:05.991Z,28.24
2022-08-12T18:03:57.678Z,27.83
2022-08-12T18:06:22.836Z,27.35
2022-08-12T18:08:58.750Z,27.20
2022-08-12T18:12:04.861Z,26.77
2022-08-12T18:14:32.619Z,26.22
2022-08-12T18:17:02.377Z,26.11
2022-08-12T18:20:03.967Z,25.85
2022-08-12T18:22:22.170Z,25.51
2022-08-12T18:25:04.993Z,25.17
2022-08-12T18:27:47.116Z,24.82
2022-08-12T18:30:20.716Z,24.62
2022-08-12T18:33:04.056Z,24.39
2022-08-12T18:35:47.150Z,24.22
2022-08-12T18:38:22.397Z,24.03
2022-08-12T18:41:10.135Z,23.87
2022-08-12T18:43:57.588Z,23.60
2022-08-12T18:46:32.191Z,23.36
2022-08-12T18:49:16.974Z,23.17
2022-08-12T18:51:55.442Z,23.03
2022-08-12T18:54:32.362Z,22.91
2022-08-12T18:57:02.256Z,22.73
2022-08-12T18:59:59.882Z,22.57
2022-08-12T19:02:22.616Z,22.40
2022-08-12T19:04:53.039Z,22.26
2022-08-12T19:07:23.149Z,22.20
2022-08-12T19:09:58.945Z,22.04
2022-08-12T19:12:56.989Z,21.99
2022-08-12T19:15:25.964Z,21.90
2022-08-12T19:18:01.276Z,21.89
2022-08-12T19:20:30.070Z,21.67
2022-08-12T19:22:57.796Z,21.72
2022-08-12T19:26:00.673Z,21.43
2022-08-12T19:28:30.181Z,21.43
2022-08-12T19:31:44.835Z,21.51
2022-08-12T19:34:56.410Z,21.41
2022-08-12T19:37:26.685Z,21.40
2022-08-12T19:40:08.909Z,21.37
2022-08-12T19:42:57.566Z,21.09
2022-08-12T19:45:42.063Z,21.01
2022-08-12T19:48:17.057Z,20.94
2022-08-12T19:50:50.681Z,20.77
2022-08-12T19:53:23.804Z,20.71
2022-08-12T19:55:55.472Z,20.59
2022-08-12T19:58:23.614Z,20.37
2022-08-12T20:00:53.506Z,20.33
2022-08-12T20:03:38.076Z,20.29
2022-08-12T20:06:13.993Z,20.16
2022-08-12T20:08:55.851Z,20.02
2022-08-12T20:12:13.270Z,20.00
2022-08-12T20:14:18.984Z,19.88
2022-08-12T20:16:53.098Z,19.78
2022-08-12T20:19:24.919Z,19.73
2022-08-12T20:22:14.259Z,19.69
2022-08-12T20:24:42.332Z,19.57
2022-08-12T20:27:28.583Z,19.58
2022-08-12T20:29:57.141Z,19.58
2022-08-12T20:32:29.758Z,19.53
2022-08-12T20:35:12.948Z,19.52
2022-08-12T20:38:06.715Z,19.47
2022-08-12T20:40:35.842Z,19.44
2022-08-12T20:43:06.625Z,19.36
2022-08-12T20:45:50.737Z,19.25
2022-08-12T20:48:24.129Z,19.18
2022-08-12T20:50:53.697Z,19.16
2022-08-12T20:53:27.770Z,19.18
2022-08-12T20:56:00.571Z,19.15
2022-08-12T20:58:28.083Z,19.16
2022-08-12T21:00:57.401Z,19.14
2022-08-12T21:03:52.383Z,19.08
2022-08-12T21:06:43.283Z,19.16
2022-08-12T21:09:09.867Z,19.20
2022-08-12T21:11:39.291Z,19.09
2022-08-12T21:14:10.550Z,18.97
2022-08-12T21:16:39.081Z,18.92
2022-08-12T21:19:08.095Z,18.88
2022-08-12T21:21:40.442Z,18.96
2022-08-12T21:24:17.796Z,18.86
2022-08-12T21:26:53.365Z,18.75
2022-08-12T21:29:20.444Z,18.59
2022-08-12T21:32:36.761Z,18.50
2022-08-12T21:34:34.553Z,18.43
2022-08-12T21:37:26.365Z,18.34
2022-08-12T21:39:53.365Z,18.32
2022-08-12T21:42:27.836Z,18.18
2022-08-12T21:45:46.740Z,18.12
2022-08-12T21:47:42.446Z,18.07
2022-08-12T21:50:09.190Z,18.09
2022-08-12T21:52:40.793Z,18.08
2022-08-12T21:55:18.019Z,17.98
2022-08-12T21:57:50.705Z,17.98
2022-08-12T22:00:21.432Z,17.92
2022-08-12T22:03:07.890Z,17.86
2022-08-12T22:06:13.861Z,17.75
2022-08-12T22:09:03.862Z,17.66
2022-08-12T22:11:41.456Z,17.54
2022-08-12T22:14:10.254Z,17.46
2022-08-12T22:16:47.076Z,17.37
2022-08-12T22:19:19.113Z,17.33
2022-08-12T22:21:48.319Z,17.27
2022-08-12T22:24:26.936Z,17.24
2022-08-12T22:27:18.471Z,17.21
2022-08-12T22:30:06.079Z,17.19
2022-08-12T22:32:33.857Z,17.14
2022-08-12T22:35:22.282Z,17.06
2022-08-12T22:37:50.952Z,17.04
2022-08-12T22:40:21.885Z,16.98
2022-08-12T22:43:08.073Z,16.91
2022-08-12T22:46:00.672Z,16.94
2022-08-12T22:48:27.302Z,16.91
2022-08-12T22:50:59.236Z,16.84
2022-08-12T22:53:35.838Z,16.81
2022-08-12T22:56:06.210Z,16.77
2022-08-12T22:58:40.776Z,16.68
2022-08-12T23:01:09.586Z,16.64
2022-08-12T23:03:47.652Z,16.55
2022-08-12T23:06:25.632Z,16.48
2022-08-12T23:08:55.149Z,16.45
2022-08-12T23:11:23.754Z,16.41
2022-08-12T23:13:56.782Z,16.41
2022-08-12T23:16:31.537Z,16.32
2022-08-12T23:19:09.803Z,16.23
2022-08-12T23:22:04.224Z,16.20
2022-08-12T23:24:35.044Z,16.09
2022-08-12T23:27:21.378Z,16.08
2022-08-12T23:30:17.555Z,16.05
2022-08-12T23:32:37.396Z,16.02
2022-08-12T23:35:06.719Z,16.02
2022-08-12T23:37:46.613Z,15.94
2022-08-12T23:40:22.137Z,15.91
2022-08-12T23:42:50.670Z,15.93
2022-08-12T23:45:20.537Z,15.94
2022-08-12T23:47:58.372Z,15.88
2022-08-12T23:50:34.336Z,15.88
2022-08-12T23:53:05.381Z,15.83
2022-08-12T23:55:38.221Z,15.78
2022-08-12T23:58:20.784Z,15.81
